Brighton, CO

8:08 PM MDT on September 15, 2014 (GMT -0600)
Brighton East Farms | Change Station
CLOSE
Current Station
Personal Weather Station
Location: Brighton, CO
Elevation: 5145 ft
Nearby Weather Stations

Elev 5145 ft 40.00 °N, 104.76 °W | Updated 2 seconds ago

Partly Cloudy
Partly Cloudy
61.9 °F
Feels Like 61.9 °F
N
6.9
Wind Variable Wind from North
Gusts 8.3 mph

Today
High -- | Low -- °F
--% Chance of Precip.
Yesterday
High -- | Low -- °F
Precip. -- in
6:40 AM 7:07 PM
Waning Gibbous, 50% visible
Pressure 30.10 in
Visibility 10.0 miles
Clouds Few 8000 ft
Few 12000 ft
Few 22000 ft
Dew Point 55 °F
Humidity 79%
Rainfall 0.00 in
Snow Depth 0 in , 0 in , 0 in
UV 0 out of 12
Pollen 7.00 out of 12
Ozone Good
PM2.5 Good
Flu Activity Not available.
METAR KDEN 160153Z 20009KT 10SM FEW080 FEW120 FEW220 18/10 A3023 RMK AO2 SLP192 T01780100

More Conditions Fewer Conditions

Pressure 30.10 in
Visibility 10.0 miles
Clouds Few 8000 ft
Few 12000 ft
Few 22000 ft
Dew Point 55 °F
Humidity 79%
Rainfall 0.00 in
Snow Depth 0 in , 0 in , 0 in
UV 0 out of 12
Pollen 7.00 out of 12
Ozone Good
PM2.5 Good
Flu Activity Not available.
METAR KDEN 160153Z 20009KT 10SM FEW080 FEW120 FEW220 18/10 A3023 RMK AO2 SLP192 T01780100

More Conditions Fewer Conditions

10-Day Weather Forecast

Almanac

Astronomy

Sep. 15, 2014 Rise Set
Actual Time 6:40 AM MDT 7:07 PM MDT
Civil Twilight 6:12 AM MDT 7:34 PM MDT
Nautical Twilight 5:40 AM MDT 8:06 PM MDT
Astronomical Twilight 5:08 AM MDT 8:39 PM MDT
Moon 11:53 PM MDT (9/15) 1:42 PM MDT (9/15)
Length of Visible Light 13h 21m
Length of Day
12h 27m
Tomorrow will be 2m 36s shorter.
Waning Gibbous, 50% of the Moon is Illuminated
Today
Waning Gibbous
Sep 24
New
Oct 1
First Quarter
Oct 8
Full
Oct 15
Last Quarter

Today's Extremes

State Highs State Lows

Community

WunderPhotos

Upload Photos

1,753,650 photos uploaded!

WunderBlogs® & News

Nearby

Air Quality

  Air Quality AQ Index Pollutant
Yesterday Good
OZONE
Yesterday Good
PM10
Current Good
OZONE
Current Good
PM2.5
Monday Good
OZONE
Monday Good
PM2.5
Tuesday Moderate
OZONE
Tuesday Good
PM2.5

Snow Depth

Station Depth Elevation
Willow Creek Pass 0 in 9540 ft
Ivanhoe 0 in 10400 ft
Cumbres Trestle 0 in 10020 ft
Vallecito 0 in 10880 ft
Lake Irene 0 in 10700 ft

Earthquake Activity

City Distance Mag. Time & Date
No recent earthquake activity has been reported nearby.
Minimum magnitude displayed is 2.5.

Coastal Water Temperatures

Place Temperature
No Stations Reporting

Nearby Weather Stations